sensor_id;sensor_type;location;lat;lon;timestamp;P1;durP1;ratioP1;P2;durP2;ratioP2
1048;SDS011;513;51.444;7.196;2022-08-21T00:00:13;14.97;;;4.80;;
1048;SDS011;513;51.444;7.196;2022-08-21T00:02:46;8.30;;;4.63;;
1048;SDS011;513;51.444;7.196;2022-08-21T00:05:15;7.23;;;4.60;;
1048;SDS011;513;51.444;7.196;2022-08-21T00:07:42;9.67;;;4.10;;
1048;SDS011;513;51.444;7.196;2022-08-21T00:10:09;10.70;;;4.87;;
1048;SDS011;513;51.444;7.196;2022-08-21T00:12:37;8.93;;;4.70;;
1048;SDS011;513;51.444;7.196;2022-08-21T00:15:04;8.43;;;4.80;;
1048;SDS011;513;51.444;7.196;2022-08-21T00:17:32;6.47;;;4.10;;
1048;SDS011;513;51.444;7.196;2022-08-21T00:20:00;8.27;;;4.83;;
1048;SDS011;513;51.444;7.196;2022-08-21T00:22:29;12.33;;;4.60;;
1048;SDS011;513;51.444;7.196;2022-08-21T00:24:55;8.57;;;4.30;;
1048;SDS011;513;51.444;7.196;2022-08-21T00:27:22;7.27;;;4.30;;
1048;SDS011;513;51.444;7.196;2022-08-21T00:29:49;8.23;;;4.20;;
1048;SDS011;513;51.444;7.196;2022-08-21T00:32:19;17.83;;;4.47;;
1048;SDS011;513;51.444;7.196;2022-08-21T00:34:47;10.53;;;4.53;;
1048;SDS011;513;51.444;7.196;2022-08-21T00:37:15;6.77;;;4.17;;
1048;SDS011;513;51.444;7.196;2022-08-21T00:39:42;5.57;;;4.20;;
1048;SDS011;513;51.444;7.196;2022-08-21T00:42:09;8.00;;;4.57;;
1048;SDS011;513;51.444;7.196;2022-08-21T00:44:39;11.37;;;4.90;;
1048;SDS011;513;51.444;7.196;2022-08-21T00:47:06;11.37;;;4.30;;
1048;SDS011;513;51.444;7.196;2022-08-21T00:49:33;6.77;;;4.13;;
1048;SDS011;513;51.444;7.196;2022-08-21T00:52:00;9.10;;;4.73;;
1048;SDS011;513;51.444;7.196;2022-08-21T00:54:29;10.57;;;4.63;;
1048;SDS011;513;51.444;7.196;2022-08-21T00:56:58;12.07;;;4.83;;
1048;SDS011;513;51.444;7.196;2022-08-21T00:59:28;12.47;;;5.03;;
1048;SDS011;513;51.444;7.196;2022-08-21T01:01:58;10.70;;;4.83;;
1048;SDS011;513;51.444;7.196;2022-08-21T01:04:25;11.13;;;4.73;;
1048;SDS011;513;51.444;7.196;2022-08-21T01:06:52;9.07;;;4.47;;
1048;SDS011;513;51.444;7.196;2022-08-21T01:09:19;11.37;;;4.90;;
1048;SDS011;513;51.444;7.196;2022-08-21T01:11:48;9.33;;;4.90;;
1048;SDS011;513;51.444;7.196;2022-08-21T01:14:15;11.33;;;5.43;;
1048;SDS011;513;51.444;7.196;2022-08-21T01:16:43;12.50;;;5.57;;
1048;SDS011;513;51.444;7.196;2022-08-21T01:19:15;8.60;;;5.27;;
1048;SDS011;513;51.444;7.196;2022-08-21T01:21:45;10.20;;;4.83;;
1048;SDS011;513;51.444;7.196;2022-08-21T01:24:12;8.63;;;4.70;;
1048;SDS011;513;51.444;7.196;2022-08-21T01:26:40;8.33;;;5.20;;
1048;SDS011;513;51.444;7.196;2022-08-21T01:29:09;10.90;;;6.00;;
1048;SDS011;513;51.444;7.196;2022-08-21T01:31:40;10.00;;;4.67;;
1048;SDS011;513;51.444;7.196;2022-08-21T01:34:07;9.90;;;4.17;;
1048;SDS011;513;51.444;7.196;2022-08-21T01:36:34;7.60;;;4.47;;
1048;SDS011;513;51.444;7.196;2022-08-21T01:39:04;11.47;;;4.87;;
1048;SDS011;513;51.444;7.196;2022-08-21T01:41:32;7.43;;;4.30;;
1048;SDS011;513;51.444;7.196;2022-08-21T01:43:58;7.33;;;4.10;;
1048;SDS011;513;51.444;7.196;2022-08-21T01:46:25;9.83;;;4.50;;
1048;SDS011;513;51.444;7.196;2022-08-21T01:48:52;11.13;;;4.90;;
1048;SDS011;513;51.444;7.196;2022-08-21T01:51:19;10.27;;;4.53;;
1048;SDS011;513;51.444;7.196;2022-08-21T01:53:46;7.90;;;4.07;;
1048;SDS011;513;51.444;7.196;2022-08-21T01:56:14;8.07;;;4.73;;
1048;SDS011;513;51.444;7.196;2022-08-21T01:58:43;7.57;;;5.00;;
1048;SDS011;513;51.444;7.196;2022-08-21T02:01:11;7.10;;;4.40;;
1048;SDS011;513;51.444;7.196;2022-08-21T02:03:38;10.03;;;4.60;;
1048;SDS011;513;51.444;7.196;2022-08-21T02:06:06;6.33;;;4.23;;
1048;SDS011;513;51.444;7.196;2022-08-21T02:08:33;12.17;;;4.97;;
1048;SDS011;513;51.444;7.196;2022-08-21T02:11:00;10.43;;;5.23;;
1048;SDS011;513;51.444;7.196;2022-08-21T02:13:28;11.80;;;4.73;;
1048;SDS011;513;51.444;7.196;2022-08-21T02:15:55;9.60;;;4.60;;
1048;SDS011;513;51.444;7.196;2022-08-21T02:18:22;9.93;;;4.63;;
1048;SDS011;513;51.444;7.196;2022-08-21T02:20:48;8.57;;;5.10;;
1048;SDS011;513;51.444;7.196;2022-08-21T02:23:16;8.73;;;5.17;;
1048;SDS011;513;51.444;7.196;2022-08-21T02:25:43;9.80;;;5.10;;
1048;SDS011;513;51.444;7.196;2022-08-21T02:28:11;9.47;;;4.93;;
1048;SDS011;513;51.444;7.196;2022-08-21T02:30:42;8.27;;;5.50;;
1048;SDS011;513;51.444;7.196;2022-08-21T02:33:11;10.20;;;5.00;;
1048;SDS011;513;51.444;7.196;2022-08-21T02:35:40;10.93;;;5.30;;
1048;SDS011;513;51.444;7.196;2022-08-21T02:38:08;13.23;;;5.23;;
1048;SDS011;513;51.444;7.196;2022-08-21T02:40:38;10.87;;;5.13;;
1048;SDS011;513;51.444;7.196;2022-08-21T02:43:07;8.07;;;4.87;;
1048;SDS011;513;51.444;7.196;2022-08-21T02:45:35;9.30;;;5.00;;
1048;SDS011;513;51.444;7.196;2022-08-21T02:48:05;11.60;;;5.50;;
1048;SDS011;513;51.444;7.196;2022-08-21T02:50:40;9.33;;;5.20;;
1048;SDS011;513;51.444;7.196;2022-08-21T02:53:09;14.33;;;5.90;;
1048;SDS011;513;51.444;7.196;2022-08-21T02:55:39;8.03;;;5.70;;
1048;SDS011;513;51.444;7.196;2022-08-21T02:58:06;11.87;;;5.77;;
1048;SDS011;513;51.444;7.196;2022-08-21T03:00:34;9.80;;;5.10;;
1048;SDS011;513;51.444;7.196;2022-08-21T03:03:02;10.83;;;5.30;;
1048;SDS011;513;51.444;7.196;2022-08-21T03:05:31;12.90;;;6.20;;
1048;SDS011;513;51.444;7.196;2022-08-21T03:08:00;8.77;;;5.50;;
1048;SDS011;513;51.444;7.196;2022-08-21T03:10:29;10.60;;;5.03;;
1048;SDS011;513;51.444;7.196;2022-08-21T03:12:56;9.93;;;5.20;;
1048;SDS011;513;51.444;7.196;2022-08-21T03:15:23;9.83;;;5.63;;
1048;SDS011;513;51.444;7.196;2022-08-21T03:17:51;13.57;;;6.00;;
1048;SDS011;513;51.444;7.196;2022-08-21T03:20:21;14.50;;;6.20;;
1048;SDS011;513;51.444;7.196;2022-08-21T03:22:49;14.37;;;5.93;;
1048;SDS011;513;51.444;7.196;2022-08-21T03:25:16;11.50;;;6.20;;
1048;SDS011;513;51.444;7.196;2022-08-21T03:27:43;12.07;;;5.67;;
1048;SDS011;513;51.444;7.196;2022-08-21T03:30:11;8.67;;;6.23;;
1048;SDS011;513;51.444;7.196;2022-08-21T03:32:38;10.47;;;6.07;;
1048;SDS011;513;51.444;7.196;2022-08-21T03:35:06;14.60;;;6.10;;
1048;SDS011;513;51.444;7.196;2022-08-21T03:37:35;11.13;;;6.03;;
1048;SDS011;513;51.444;7.196;2022-08-21T03:40:02;9.17;;;5.60;;
1048;SDS011;513;51.444;7.196;2022-08-21T03:42:29;15.13;;;6.77;;
1048;SDS011;513;51.444;7.196;2022-08-21T03:44:56;11.63;;;5.70;;
1048;SDS011;513;51.444;7.196;2022-08-21T03:47:23;10.03;;;6.10;;
1048;SDS011;513;51.444;7.196;2022-08-21T03:49:50;10.80;;;5.53;;
1048;SDS011;513;51.444;7.196;2022-08-21T03:52:17;13.37;;;6.13;;
1048;SDS011;513;51.444;7.196;2022-08-21T03:54:45;10.10;;;5.77;;
1048;SDS011;513;51.444;7.196;2022-08-21T03:57:12;10.67;;;5.40;;
1048;SDS011;513;51.444;7.196;2022-08-21T03:59:39;10.63;;;5.87;;
1048;SDS011;513;51.444;7.196;2022-08-21T04:02:07;12.43;;;5.57;;
1048;SDS011;513;51.444;7.196;2022-08-21T04:04:35;9.30;;;5.13;;
1048;SDS011;513;51.444;7.196;2022-08-21T04:07:02;8.70;;;5.40;;
1048;SDS011;513;51.444;7.196;2022-08-21T04:09:29;10.00;;;5.13;;
1048;SDS011;513;51.444;7.196;2022-08-21T04:11:57;11.67;;;5.30;;
1048;SDS011;513;51.444;7.196;2022-08-21T04:14:25;13.37;;;5.53;;
1048;SDS011;513;51.444;7.196;2022-08-21T04:16:51;14.60;;;5.77;;
1048;SDS011;513;51.444;7.196;2022-08-21T04:19:18;11.40;;;5.70;;
1048;SDS011;513;51.444;7.196;2022-08-21T04:21:45;13.47;;;6.10;;
1048;SDS011;513;51.444;7.196;2022-08-21T04:24:11;11.57;;;6.50;;
1048;SDS011;513;51.444;7.196;2022-08-21T04:26:38;9.53;;;6.70;;
1048;SDS011;513;51.444;7.196;2022-08-21T04:29:06;10.47;;;6.30;;
1048;SDS011;513;51.444;7.196;2022-08-21T04:31:33;12.47;;;6.20;;
1048;SDS011;513;51.444;7.196;2022-08-21T04:34:01;11.30;;;6.70;;
1048;SDS011;513;51.444;7.196;2022-08-21T04:36:28;11.13;;;6.10;;
1048;SDS011;513;51.444;7.196;2022-08-21T04:38:55;11.37;;;7.10;;
1048;SDS011;513;51.444;7.196;2022-08-21T04:41:22;11.17;;;6.10;;
1048;SDS011;513;51.444;7.196;2022-08-21T04:43:49;14.33;;;7.43;;
1048;SDS011;513;51.444;7.196;2022-08-21T04:46:17;12.70;;;6.40;;
1048;SDS011;513;51.444;7.196;2022-08-21T04:48:44;13.00;;;6.80;;
1048;SDS011;513;51.444;7.196;2022-08-21T04:51:11;15.50;;;6.30;;
1048;SDS011;513;51.444;7.196;2022-08-21T04:53:41;11.50;;;7.97;;
1048;SDS011;513;51.444;7.196;2022-08-21T04:56:12;9.50;;;7.40;;
1048;SDS011;513;51.444;7.196;2022-08-21T04:58:40;13.77;;;7.77;;
1048;SDS011;513;51.444;7.196;2022-08-21T05:01:08;12.77;;;8.03;;
1048;SDS011;513;51.444;7.196;2022-08-21T05:03:39;14.80;;;7.77;;
1048;SDS011;513;51.444;7.196;2022-08-21T05:06:07;10.80;;;8.47;;
1048;SDS011;513;51.444;7.196;2022-08-21T05:08:36;11.33;;;8.27;;
1048;SDS011;513;51.444;7.196;2022-08-21T05:11:04;11.83;;;8.20;;
1048;SDS011;513;51.444;7.196;2022-08-21T05:13:31;14.77;;;8.23;;
1048;SDS011;513;51.444;7.196;2022-08-21T05:15:58;12.97;;;7.83;;
1048;SDS011;513;51.444;7.196;2022-08-21T05:18:24;14.03;;;7.50;;
1048;SDS011;513;51.444;7.196;2022-08-21T05:20:52;18.17;;;7.17;;
1048;SDS011;513;51.444;7.196;2022-08-21T05:23:19;15.10;;;7.40;;
1048;SDS011;513;51.444;7.196;2022-08-21T05:25:46;10.07;;;6.77;;
1048;SDS011;513;51.444;7.196;2022-08-21T05:28:13;12.10;;;7.03;;
1048;SDS011;513;51.444;7.196;2022-08-21T05:30:39;10.23;;;7.03;;
1048;SDS011;513;51.444;7.196;2022-08-21T05:33:06;14.00;;;7.90;;
1048;SDS011;513;51.444;7.196;2022-08-21T05:35:33;13.30;;;7.00;;
1048;SDS011;513;51.444;7.196;2022-08-21T05:38:01;12.97;;;8.07;;
1048;SDS011;513;51.444;7.196;2022-08-21T05:40:29;14.73;;;8.80;;
1048;SDS011;513;51.444;7.196;2022-08-21T05:42:56;13.10;;;7.63;;
1048;SDS011;513;51.444;7.196;2022-08-21T05:45:25;14.30;;;6.77;;
1048;SDS011;513;51.444;7.196;2022-08-21T05:47:54;14.33;;;7.97;;
1048;SDS011;513;51.444;7.196;2022-08-21T05:50:20;16.60;;;8.00;;
1048;SDS011;513;51.444;7.196;2022-08-21T05:52:47;16.47;;;7.57;;
1048;SDS011;513;51.444;7.196;2022-08-21T05:55:16;13.37;;;7.83;;
1048;SDS011;513;51.444;7.196;2022-08-21T05:57:42;11.80;;;6.80;;
1048;SDS011;513;51.444;7.196;2022-08-21T06:00:09;11.87;;;7.40;;
1048;SDS011;513;51.444;7.196;2022-08-21T06:02:37;15.47;;;7.90;;
1048;SDS011;513;51.444;7.196;2022-08-21T06:05:04;12.13;;;8.37;;
1048;SDS011;513;51.444;7.196;2022-08-21T06:07:31;12.60;;;9.00;;
1048;SDS011;513;51.444;7.196;2022-08-21T06:09:58;12.60;;;9.07;;
1048;SDS011;513;51.444;7.196;2022-08-21T06:12:26;13.87;;;9.43;;
1048;SDS011;513;51.444;7.196;2022-08-21T06:14:53;16.77;;;10.53;;
1048;SDS011;513;51.444;7.196;2022-08-21T06:17:20;21.40;;;10.60;;
1048;SDS011;513;51.444;7.196;2022-08-21T06:19:50;15.83;;;9.70;;
1048;SDS011;513;51.444;7.196;2022-08-21T06:22:17;19.83;;;10.87;;
1048;SDS011;513;51.444;7.196;2022-08-21T06:24:44;17.03;;;10.40;;
1048;SDS011;513;51.444;7.196;2022-08-21T06:27:10;20.73;;;11.00;;
1048;SDS011;513;51.444;7.196;2022-08-21T06:29:39;18.70;;;9.63;;
1048;SDS011;513;51.444;7.196;2022-08-21T06:32:05;21.67;;;11.43;;
1048;SDS011;513;51.444;7.196;2022-08-21T06:34:35;16.23;;;10.70;;
1048;SDS011;513;51.444;7.196;2022-08-21T06:37:02;20.43;;;10.90;;
1048;SDS011;513;51.444;7.196;2022-08-21T06:39:29;19.90;;;11.07;;
1048;SDS011;513;51.444;7.196;2022-08-21T06:41:56;17.33;;;11.27;;
1048;SDS011;513;51.444;7.196;2022-08-21T06:44:22;16.57;;;10.83;;
1048;SDS011;513;51.444;7.196;2022-08-21T06:46:51;17.17;;;11.33;;
1048;SDS011;513;51.444;7.196;2022-08-21T06:49:18;16.77;;;11.37;;
1048;SDS011;513;51.444;7.196;2022-08-21T06:51:44;17.70;;;10.53;;
1048;SDS011;513;51.444;7.196;2022-08-21T06:54:11;16.47;;;10.30;;
1048;SDS011;513;51.444;7.196;2022-08-21T06:56:37;15.33;;;9.97;;
1048;SDS011;513;51.444;7.196;2022-08-21T06:59:04;17.53;;;10.33;;
1048;SDS011;513;51.444;7.196;2022-08-21T07:01:32;21.43;;;11.30;;
1048;SDS011;513;51.444;7.196;2022-08-21T07:04:00;20.37;;;11.30;;
1048;SDS011;513;51.444;7.196;2022-08-21T07:06:27;18.60;;;10.57;;
1048;SDS011;513;51.444;7.196;2022-08-21T07:08:53;11.60;;;9.67;;
1048;SDS011;513;51.444;7.196;2022-08-21T07:11:21;17.60;;;10.40;;
1048;SDS011;513;51.444;7.196;2022-08-21T07:13:50;16.53;;;10.30;;
1048;SDS011;513;51.444;7.196;2022-08-21T07:16:17;18.53;;;10.43;;
1048;SDS011;513;51.444;7.196;2022-08-21T07:18:44;15.20;;;9.63;;
1048;SDS011;513;51.444;7.196;2022-08-21T07:21:12;17.23;;;8.97;;
1048;SDS011;513;51.444;7.196;2022-08-21T07:23:39;18.27;;;9.50;;
1048;SDS011;513;51.444;7.196;2022-08-21T07:26:08;13.20;;;9.27;;
1048;SDS011;513;51.444;7.196;2022-08-21T07:28:35;17.33;;;9.30;;
1048;SDS011;513;51.444;7.196;2022-08-21T07:31:03;16.50;;;8.73;;
1048;SDS011;513;51.444;7.196;2022-08-21T07:33:31;13.77;;;8.20;;
1048;SDS011;513;51.444;7.196;2022-08-21T07:35:59;16.30;;;7.33;;
1048;SDS011;513;51.444;7.196;2022-08-21T07:38:27;14.73;;;7.73;;
1048;SDS011;513;51.444;7.196;2022-08-21T07:40:55;8.67;;;6.40;;
1048;SDS011;513;51.444;7.196;2022-08-21T07:43:23;10.50;;;5.80;;
1048;SDS011;513;51.444;7.196;2022-08-21T07:45:50;12.73;;;6.80;;
1048;SDS011;513;51.444;7.196;2022-08-21T07:48:19;12.17;;;5.63;;
1048;SDS011;513;51.444;7.196;2022-08-21T07:50:45;9.13;;;4.07;;
1048;SDS011;513;51.444;7.196;2022-08-21T07:53:12;9.77;;;4.13;;
1048;SDS011;513;51.444;7.196;2022-08-21T07:55:40;6.20;;;3.97;;
1048;SDS011;513;51.444;7.196;2022-08-21T07:58:07;7.83;;;4.00;;
1048;SDS011;513;51.444;7.196;2022-08-21T08:00:34;9.40;;;3.20;;
1048;SDS011;513;51.444;7.196;2022-08-21T08:03:01;8.90;;;3.20;;
1048;SDS011;513;51.444;7.196;2022-08-21T08:05:29;7.43;;;2.77;;
1048;SDS011;513;51.444;7.196;2022-08-21T08:07:56;6.20;;;2.90;;
1048;SDS011;513;51.444;7.196;2022-08-21T08:10:24;7.47;;;2.87;;
1048;SDS011;513;51.444;7.196;2022-08-21T08:12:52;9.20;;;3.10;;
1048;SDS011;513;51.444;7.196;2022-08-21T08:15:22;5.13;;;2.53;;
1048;SDS011;513;51.444;7.196;2022-08-21T08:17:50;6.20;;;2.57;;
1048;SDS011;513;51.444;7.196;2022-08-21T08:20:17;5.00;;;2.50;;
1048;SDS011;513;51.444;7.196;2022-08-21T08:22:45;8.23;;;2.80;;
1048;SDS011;513;51.444;7.196;2022-08-21T08:25:13;7.10;;;2.47;;
1048;SDS011;513;51.444;7.196;2022-08-21T08:27:40;9.10;;;2.83;;
1048;SDS011;513;51.444;7.196;2022-08-21T08:30:10;9.20;;;2.27;;
1048;SDS011;513;51.444;7.196;2022-08-21T08:32:39;6.73;;;2.03;;
1048;SDS011;513;51.444;7.196;2022-08-21T08:35:07;4.47;;;2.27;;
1048;SDS011;513;51.444;7.196;2022-08-21T08:37:35;6.87;;;2.77;;
1048;SDS011;513;51.444;7.196;2022-08-21T08:40:05;6.77;;;2.60;;
1048;SDS011;513;51.444;7.196;2022-08-21T08:42:33;5.50;;;2.30;;
1048;SDS011;513;51.444;7.196;2022-08-21T08:45:03;8.37;;;3.20;;
1048;SDS011;513;51.444;7.196;2022-08-21T08:47:33;6.77;;;2.60;;
1048;SDS011;513;51.444;7.196;2022-08-21T08:50:05;6.60;;;2.73;;
1048;SDS011;513;51.444;7.196;2022-08-21T08:52:35;5.43;;;2.53;;
1048;SDS011;513;51.444;7.196;2022-08-21T08:55:08;6.07;;;2.70;;
1048;SDS011;513;51.444;7.196;2022-08-21T08:57:37;5.87;;;2.67;;
1048;SDS011;513;51.444;7.196;2022-08-21T09:00:08;9.43;;;2.97;;
1048;SDS011;513;51.444;7.196;2022-08-21T09:02:39;7.37;;;2.83;;
1048;SDS011;513;51.444;7.196;2022-08-21T09:05:08;6.13;;;3.00;;
1048;SDS011;513;51.444;7.196;2022-08-21T09:08:08;5.53;;;2.70;;
1048;SDS011;513;51.444;7.196;2022-08-21T09:10:48;6.53;;;3.13;;
1048;SDS011;513;51.444;7.196;2022-08-21T09:13:24;7.00;;;2.77;;
1048;SDS011;513;51.444;7.196;2022-08-21T09:15:59;7.97;;;3.10;;
1048;SDS011;513;51.444;7.196;2022-08-21T09:18:36;7.37;;;2.60;;
1048;SDS011;513;51.444;7.196;2022-08-21T09:21:16;9.00;;;2.57;;
1048;SDS011;513;51.444;7.196;2022-08-21T09:23:52;9.03;;;2.73;;
1048;SDS011;513;51.444;7.196;2022-08-21T09:26:25;5.43;;;2.27;;
1048;SDS011;513;51.444;7.196;2022-08-21T09:28:56;4.83;;;2.30;;
1048;SDS011;513;51.444;7.196;2022-08-21T09:31:27;3.97;;;2.03;;
1048;SDS011;513;51.444;7.196;2022-08-21T09:34:00;8.53;;;2.40;;
1048;SDS011;513;51.444;7.196;2022-08-21T09:36:31;6.57;;;2.43;;
1048;SDS011;513;51.444;7.196;2022-08-21T09:39:04;5.93;;;2.57;;
1048;SDS011;513;51.444;7.196;2022-08-21T09:41:33;5.20;;;1.80;;
1048;SDS011;513;51.444;7.196;2022-08-21T09:44:01;6.87;;;2.20;;
1048;SDS011;513;51.444;7.196;2022-08-21T09:46:29;8.57;;;2.03;;
1048;SDS011;513;51.444;7.196;2022-08-21T09:48:57;8.63;;;2.50;;
1048;SDS011;513;51.444;7.196;2022-08-21T09:51:27;8.67;;;2.90;;
1048;SDS011;513;51.444;7.196;2022-08-21T09:53:56;5.23;;;2.30;;
1048;SDS011;513;51.444;7.196;2022-08-21T09:56:36;7.93;;;2.23;;
1048;SDS011;513;51.444;7.196;2022-08-21T09:59:25;7.50;;;1.77;;
1048;SDS011;513;51.444;7.196;2022-08-21T10:01:55;6.53;;;2.13;;
1048;SDS011;513;51.444;7.196;2022-08-21T10:04:28;8.50;;;2.10;;
1048;SDS011;513;51.444;7.196;2022-08-21T10:07:07;6.67;;;1.80;;
1048;SDS011;513;51.444;7.196;2022-08-21T10:09:34;3.80;;;1.83;;
1048;SDS011;513;51.444;7.196;2022-08-21T10:12:07;5.63;;;2.20;;
1048;SDS011;513;51.444;7.196;2022-08-21T10:14:41;35.20;;;17.60;;
1048;SDS011;513;51.444;7.196;2022-08-21T10:17:16;8.90;;;3.13;;
1048;SDS011;513;51.444;7.196;2022-08-21T10:19:50;5.77;;;1.97;;
1048;SDS011;513;51.444;7.196;2022-08-21T10:22:30;4.50;;;1.60;;
1048;SDS011;513;51.444;7.196;2022-08-21T10:25:08;5.57;;;2.00;;
1048;SDS011;513;51.444;7.196;2022-08-21T10:27:46;7.60;;;1.53;;
1048;SDS011;513;51.444;7.196;2022-08-21T10:30:26;6.93;;;1.70;;
1048;SDS011;513;51.444;7.196;2022-08-21T10:33:07;3.67;;;1.33;;
1048;SDS011;513;51.444;7.196;2022-08-21T10:35:55;3.13;;;1.40;;
1048;SDS011;513;51.444;7.196;2022-08-21T10:38:34;5.00;;;1.80;;
1048;SDS011;513;51.444;7.196;2022-08-21T10:41:19;7.30;;;2.00;;
1048;SDS011;513;51.444;7.196;2022-08-21T10:43:56;5.57;;;1.40;;
1048;SDS011;513;51.444;7.196;2022-08-21T10:46:34;5.43;;;1.20;;
1048;SDS011;513;51.444;7.196;2022-08-21T10:49:09;3.93;;;1.20;;
1048;SDS011;513;51.444;7.196;2022-08-21T10:51:45;3.37;;;1.20;;
1048;SDS011;513;51.444;7.196;2022-08-21T10:54:26;4.30;;;1.23;;
1048;SDS011;513;51.444;7.196;2022-08-21T10:57:02;3.33;;;1.40;;
1048;SDS011;513;51.444;7.196;2022-08-21T10:59:33;4.00;;;1.40;;
1048;SDS011;513;51.444;7.196;2022-08-21T11:02:09;4.33;;;1.30;;
1048;SDS011;513;51.444;7.196;2022-08-21T11:04:48;7.60;;;1.53;;
1048;SDS011;513;51.444;7.196;2022-08-21T11:07:21;6.20;;;1.57;;
1048;SDS011;513;51.444;7.196;2022-08-21T11:09:54;4.13;;;2.33;;
1048;SDS011;513;51.444;7.196;2022-08-21T11:12:25;4.63;;;1.93;;
1048;SDS011;513;51.444;7.196;2022-08-21T11:14:58;2.63;;;1.10;;
1048;SDS011;513;51.444;7.196;2022-08-21T11:17:31;3.13;;;1.17;;
1048;SDS011;513;51.444;7.196;2022-08-21T11:20:05;3.97;;;1.03;;
1048;SDS011;513;51.444;7.196;2022-08-21T11:22:37;4.03;;;1.20;;
1048;SDS011;513;51.444;7.196;2022-08-21T11:25:13;3.83;;;1.10;;
1048;SDS011;513;51.444;7.196;2022-08-21T11:27:46;3.03;;;1.47;;
1048;SDS011;513;51.444;7.196;2022-08-21T11:30:18;3.80;;;1.00;;
1048;SDS011;513;51.444;7.196;2022-08-21T11:32:57;2.87;;;1.13;;
1048;SDS011;513;51.444;7.196;2022-08-21T11:35:34;2.50;;;1.20;;
1048;SDS011;513;51.444;7.196;2022-08-21T11:38:09;4.43;;;1.47;;
1048;SDS011;513;51.444;7.196;2022-08-21T11:40:48;3.70;;;1.10;;
1048;SDS011;513;51.444;7.196;2022-08-21T11:43:31;3.83;;;1.10;;
1048;SDS011;513;51.444;7.196;2022-08-21T11:46:08;3.27;;;1.20;;
1048;SDS011;513;51.444;7.196;2022-08-21T11:48:48;3.03;;;1.30;;
1048;SDS011;513;51.444;7.196;2022-08-21T11:51:26;1.93;;;0.87;;
1048;SDS011;513;51.444;7.196;2022-08-21T11:53:59;3.77;;;1.20;;
1048;SDS011;513;51.444;7.196;2022-08-21T11:56:33;5.80;;;1.60;;
1048;SDS011;513;51.444;7.196;2022-08-21T11:59:04;3.30;;;1.20;;
1048;SDS011;513;51.444;7.196;2022-08-21T12:01:36;2.00;;;1.10;;
1048;SDS011;513;51.444;7.196;2022-08-21T12:04:10;2.13;;;1.13;;
1048;SDS011;513;51.444;7.196;2022-08-21T12:06:44;3.60;;;1.07;;
1048;SDS011;513;51.444;7.196;2022-08-21T12:12:02;3.30;;;1.10;;
1048;SDS011;513;51.444;7.196;2022-08-21T12:14:36;1.90;;;0.97;;
1048;SDS011;513;51.444;7.196;2022-08-21T12:17:06;3.70;;;1.07;;
1048;SDS011;513;51.444;7.196;2022-08-21T12:19:34;3.27;;;1.13;;
1048;SDS011;513;51.444;7.196;2022-08-21T12:22:07;3.37;;;1.17;;
1048;SDS011;513;51.444;7.196;2022-08-21T12:24:37;2.37;;;1.00;;
1048;SDS011;513;51.444;7.196;2022-08-21T12:27:18;2.40;;;0.73;;
1048;SDS011;513;51.444;7.196;2022-08-21T12:29:51;2.47;;;0.70;;
1048;SDS011;513;51.444;7.196;2022-08-21T12:32:22;1.53;;;0.80;;
1048;SDS011;513;51.444;7.196;2022-08-21T12:34:52;3.10;;;0.73;;
1048;SDS011;513;51.444;7.196;2022-08-21T12:37:24;1.67;;;0.63;;
1048;SDS011;513;51.444;7.196;2022-08-21T12:40:00;2.97;;;0.87;;
1048;SDS011;513;51.444;7.196;2022-08-21T12:42:33;1.23;;;0.50;;
1048;SDS011;513;51.444;7.196;2022-08-21T12:45:17;1.60;;;0.50;;
1048;SDS011;513;51.444;7.196;2022-08-21T12:47:47;6.40;;;1.53;;
1048;SDS011;513;51.444;7.196;2022-08-21T12:50:17;2.07;;;1.00;;
1048;SDS011;513;51.444;7.196;2022-08-21T12:52:48;3.80;;;1.00;;
1048;SDS011;513;51.444;7.196;2022-08-21T12:55:32;1.37;;;0.80;;
1048;SDS011;513;51.444;7.196;2022-08-21T12:58:01;3.80;;;1.10;;
1048;SDS011;513;51.444;7.196;2022-08-21T13:00:28;3.33;;;1.13;;
1048;SDS011;513;51.444;7.196;2022-08-21T13:02:56;2.20;;;0.80;;
1048;SDS011;513;51.444;7.196;2022-08-21T13:05:27;4.37;;;0.87;;
1048;SDS011;513;51.444;7.196;2022-08-21T13:07:58;2.83;;;0.90;;
1048;SDS011;513;51.444;7.196;2022-08-21T13:10:29;2.40;;;1.00;;
1048;SDS011;513;51.444;7.196;2022-08-21T13:12:59;3.10;;;1.30;;
1048;SDS011;513;51.444;7.196;2022-08-21T13:15:30;1.97;;;0.90;;
1048;SDS011;513;51.444;7.196;2022-08-21T13:17:58;2.40;;;1.00;;
1048;SDS011;513;51.444;7.196;2022-08-21T13:20:28;1.53;;;0.60;;
1048;SDS011;513;51.444;7.196;2022-08-21T13:22:56;4.23;;;2.10;;
1048;SDS011;513;51.444;7.196;2022-08-21T13:25:25;2.57;;;1.40;;
1048;SDS011;513;51.444;7.196;2022-08-21T13:27:58;3.33;;;1.50;;
1048;SDS011;513;51.444;7.196;2022-08-21T13:30:28;5.23;;;1.20;;
1048;SDS011;513;51.444;7.196;2022-08-21T13:32:56;3.40;;;0.90;;
1048;SDS011;513;51.444;7.196;2022-08-21T13:35:26;4.07;;;0.80;;
1048;SDS011;513;51.444;7.196;2022-08-21T13:37:56;2.83;;;0.80;;
1048;SDS011;513;51.444;7.196;2022-08-21T13:40:25;2.13;;;0.83;;
1048;SDS011;513;51.444;7.196;2022-08-21T13:42:53;3.17;;;1.03;;
1048;SDS011;513;51.444;7.196;2022-08-21T13:45:23;2.47;;;0.87;;
1048;SDS011;513;51.444;7.196;2022-08-21T13:47:53;2.77;;;1.00;;
1048;SDS011;513;51.444;7.196;2022-08-21T13:50:21;2.50;;;0.90;;
1048;SDS011;513;51.444;7.196;2022-08-21T13:52:55;2.50;;;0.90;;
1048;SDS011;513;51.444;7.196;2022-08-21T13:55:25;2.63;;;0.80;;
1048;SDS011;513;51.444;7.196;2022-08-21T13:58:01;2.90;;;1.00;;
1048;SDS011;513;51.444;7.196;2022-08-21T14:00:30;3.13;;;1.20;;
1048;SDS011;513;51.444;7.196;2022-08-21T14:03:02;3.50;;;1.07;;
1048;SDS011;513;51.444;7.196;2022-08-21T14:05:32;6.17;;;1.23;;
1048;SDS011;513;51.444;7.196;2022-08-21T14:08:03;1.17;;;0.70;;
1048;SDS011;513;51.444;7.196;2022-08-21T14:10:36;3.77;;;1.00;;
1048;SDS011;513;51.444;7.196;2022-08-21T14:13:14;3.57;;;1.07;;
1048;SDS011;513;51.444;7.196;2022-08-21T14:15:56;2.90;;;1.10;;
1048;SDS011;513;51.444;7.196;2022-08-21T14:18:25;3.37;;;1.13;;
1048;SDS011;513;51.444;7.196;2022-08-21T14:21:02;2.77;;;1.20;;
1048;SDS011;513;51.444;7.196;2022-08-21T14:23:30;3.13;;;1.20;;
1048;SDS011;513;51.444;7.196;2022-08-21T14:25:58;3.03;;;1.53;;
1048;SDS011;513;51.444;7.196;2022-08-21T14:28:28;4.03;;;1.00;;
1048;SDS011;513;51.444;7.196;2022-08-21T14:30:56;2.37;;;0.97;;
1048;SDS011;513;51.444;7.196;2022-08-21T14:33:26;2.90;;;1.07;;
1048;SDS011;513;51.444;7.196;2022-08-21T14:35:54;3.83;;;1.20;;
1048;SDS011;513;51.444;7.196;2022-08-21T14:38:21;7.33;;;3.10;;
1048;SDS011;513;51.444;7.196;2022-08-21T14:40:51;3.87;;;1.60;;
1048;SDS011;513;51.444;7.196;2022-08-21T14:43:20;3.13;;;1.23;;
1048;SDS011;513;51.444;7.196;2022-08-21T14:45:47;2.30;;;1.10;;
1048;SDS011;513;51.444;7.196;2022-08-21T14:48:14;2.90;;;1.43;;
1048;SDS011;513;51.444;7.196;2022-08-21T14:50:42;2.20;;;1.17;;
1048;SDS011;513;51.444;7.196;2022-08-21T14:53:09;4.07;;;1.57;;
1048;SDS011;513;51.444;7.196;2022-08-21T14:55:36;2.90;;;1.10;;
1048;SDS011;513;51.444;7.196;2022-08-21T14:58:18;3.87;;;1.60;;
1048;SDS011;513;51.444;7.196;2022-08-21T15:00:45;5.23;;;1.07;;
1048;SDS011;513;51.444;7.196;2022-08-21T15:03:12;4.10;;;1.10;;
1048;SDS011;513;51.444;7.196;2022-08-21T15:05:38;2.90;;;1.40;;
1048;SDS011;513;51.444;7.196;2022-08-21T15:08:06;1.63;;;0.90;;
1048;SDS011;513;51.444;7.196;2022-08-21T15:10:33;2.97;;;1.20;;
1048;SDS011;513;51.444;7.196;2022-08-21T15:13:01;2.40;;;0.90;;
1048;SDS011;513;51.444;7.196;2022-08-21T15:15:28;3.27;;;1.10;;
1048;SDS011;513;51.444;7.196;2022-08-21T15:17:58;4.87;;;0.80;;
1048;SDS011;513;51.444;7.196;2022-08-21T15:20:24;2.17;;;0.97;;
1048;SDS011;513;51.444;7.196;2022-08-21T15:22:51;4.83;;;1.10;;
1048;SDS011;513;51.444;7.196;2022-08-21T15:25:19;1.57;;;1.10;;
1048;SDS011;513;51.444;7.196;2022-08-21T15:27:46;2.90;;;1.40;;
1048;SDS011;513;51.444;7.196;2022-08-21T15:30:13;3.07;;;1.10;;
1048;SDS011;513;51.444;7.196;2022-08-21T15:32:39;1.60;;;0.90;;
1048;SDS011;513;51.444;7.196;2022-08-21T15:35:06;3.23;;;1.03;;
1048;SDS011;513;51.444;7.196;2022-08-21T15:37:33;2.50;;;1.00;;
1048;SDS011;513;51.444;7.196;2022-08-21T15:40:00;2.67;;;1.00;;
1048;SDS011;513;51.444;7.196;2022-08-21T15:42:31;3.17;;;0.90;;